Nearby METAR Reports

 

KBVO - Bartlesville, Oklahoma, USA
Distance from station: WNW 10mi, 16km
Updated: Sat, 23-Jun-2018 3:53pm CDT
Clear
Clear
 Wind from calm
Wind: Calm
Temperature: 88°F , 31°C
Heat Index: 92°F , 33°C
Dew Point: 68°F , 20°C
Humidity: 52%
Barometer: 29.82 inHg , 1009.8 hPa
Clouds: Clear
Visibility: 10 miles , 16 km
2018/06/23 20:53 KBVO 232053Z AUTO 00000KT 10SM CLR 31/20 A2982 RMK AO2 SLP085 T03110200 56012
KCFV - Coffeyville, Kansas, USA
Distance from station: NNE 31mi, 49km
Updated: Sat, 23-Jun-2018 3:52pm CDT
Clear
Clear
 Wind from W
Wind: W 7 mph , 11 km/h
Temperature: 88°F , 31°C
Heat Index: 90°F , 32°C
Dew Point: 64°F , 18°C
Humidity: 46%
Barometer: 29.80 inHg , 1009.1 hPa
Clouds: Clear
Visibility: 10 miles , 16 km
2018/06/23 20:52 KCFV 232052Z AUTO 27006KT 10SM CLR 31/18 A2980 RMK AO2 SLP083 T03110183 58006
 
KIDP - Independence, Kansas, USA
Distance from station: N 32mi, 52km
Updated: Sat, 23-Jun-2018 4:15pm CDT
Clear
Clear
 Wind from SW
Wind: SW 7 mph , 11 km/h
Temperature: 86°F , 30°C
Heat Index: 88°F , 31°C
Dew Point: 66°F , 19°C
Humidity: 52%
Barometer: 29.81 inHg , 1009.5 hPa
Clouds: Clear
Visibility: 10 miles , 16 km
2018/06/23 21:15 KIDP 232115Z AUTO 22006KT 10SM CLR 30/19 A2981 RMK AO2 T02970192
KGCM - Claremore, Oklahoma, USA
Distance from station: SE 35mi, 56km
Updated: Sat, 23-Jun-2018 4:15pm CDT
Clear
Clear
 Wind from NNW
Wind: NNW 3 mph , 6 km/h
Temperature: 86°F , 30°C
Heat Index: 88°F , 31°C
Dew Point: 64°F , 18°C
Humidity: 49%
Barometer: 29.82 inHg , 1009.8 hPa
Clouds: Clear
Visibility: 10 miles , 16 km
2018/06/23 21:15 KGCM 232115Z AUTO 34003KT 10SM CLR 30/18 A2982 RMK AO2
 
KTUL - Tulsa, Oklahoma, USA
Distance from station: S 35mi, 56km
Updated: Sat, 23-Jun-2018 3:53pm CDT
Few Clouds
Few Clouds
 Wind from W
Wind: W 7 mph , 11 km/h
Temperature: 90°F , 32°C
Heat Index: 93°F , 34°C
Dew Point: 66°F , 19°C
Humidity: 46%
Barometer: 29.78 inHg , 1008.5 hPa
Clouds: Few Clouds
Visibility: 10 miles , 16 km
Cloud details: Few Clouds 16000 ft
Few Clouds 25000 ft
2018/06/23 20:53 KTUL 232053Z 27006KT 10SM FEW160 FEW250 32/19 A2978 RMK AO2 SLP077 T03220194 58014
KRVS - Tulsa, Oklahoma, USA
Distance from station: S 46mi, 74km
Updated: Sat, 23-Jun-2018 3:53pm CDT
Clear
Clear
 Wind from SW
Wind: SW 5 mph , 7 km/h
Temperature: 88°F , 31°C
Heat Index: 91°F , 33°C
Dew Point: 66°F , 19°C
Humidity: 49%
Barometer: 29.80 inHg , 1009.1 hPa
Clouds: Clear
Visibility: 10 miles , 16 km
2018/06/23 20:53 KRVS 232053Z 22004KT 10SM CLR 31/19 A2980 RMK AO2 SLP093 T03060189 56015
 
KPPF - Parsons, Kansas, USA
Distance from station: NNE 48mi, 76km
Updated: Sat, 23-Jun-2018 12:52pm CDT
NOT Current
Clear
Clear
 Wind from WSW
Wind: WSW 7 mph , 11 km/h
Temperature: 84°F , 29°C
Heat Index: 86°F , 30°C
Dew Point: 66°F , 19°C
Humidity: 55%
Barometer: 29.83 inHg , 1010.2 hPa
Clouds: Clear
Visibility: 10 miles , 16 km
2018/06/23 17:52 KPPF 231752Z AUTO 24006KT 10SM CLR 29/19 A2983 RMK AO2 SLP093 T02890189 10289 20189 50002
KGMJ - Grove, Oklahoma, USA
Distance from station: E 63mi, 101km
Updated: Sat, 23-Jun-2018 4:15pm CDT
Clear
Clear
 Wind from SW
Wind: SW 8 mph , 13 km/h
Temperature: 86°F , 30°C
Heat Index: 89°F , 32°C
Dew Point: 68°F , 20°C
Humidity: 55%
Barometer: 29.83 inHg , 1010.2 hPa
Clouds: Clear
Visibility: 10 miles , 16 km
2018/06/23 21:15 KGMJ 232115Z AUTO 22007KT 10SM CLR 30/20 A2983 RMK AO2
 
KPNC - Ponca City, Oklahoma, USA
Distance from station: W 69mi, 111km
Updated: Sat, 23-Jun-2018 3:53pm CDT
Clear
Clear
 Wind from NE
Wind: NE 3 mph , 6 km/h
Temperature: 86°F , 30°C
Heat Index: 88°F , 31°C
Dew Point: 64°F , 18°C
Humidity: 49%
Barometer: 29.80 inHg , 1009.1 hPa
Clouds: Clear
Visibility: 10 miles , 16 km
2018/06/23 20:53 KPNC 232053Z AUTO 04003KT 10SM CLR 30/18 A2980 RMK AO2 SLP080 T03000183 58019
KCNU - Chanute, Kansas, USA
Distance from station: NNE 69mi, 112km
Updated: Sat, 23-Jun-2018 3:52pm CDT
Partly cloudy
Partly cloudy
 Wind from WNW
Wind: WNW 9 mph , 15 km/h
Temperature: 88°F , 31°C
Heat Index: 90°F , 32°C
Dew Point: 64°F , 18°C
Humidity: 46%
Barometer: 29.81 inHg , 1009.5 hPa
Clouds: Partly cloudy
Visibility: 10 miles , 16 km
Cloud details: Partly cloudy 5500 ft
2018/06/23 20:52 KCNU 232052Z AUTO 29008KT 10SM SCT055 31/18 A2981 RMK AO2 SLP083 T03060183 56004